Time;durP1;ratioP1;P1;durP2;ratioP2;P2;SDS_P1;SDS_P2;PMS_P1;PMS_P2;Temp;Humidity;BMP_temperature;BMP_pressure;BME280_temperature;BME280_humidity;BME280_pressure;Samples;Min_cycle;Max_cycle;Signal;HPM_P1;HPM_P2
2022/12/02 00:09:42;;;;;;;1999.90;999.90;;;4.90;99.90;;;;;;6682951;88;20336;-78
2022/12/02 00:19:43;;;;;;;1999.90;999.90;;;4.90;99.90;;;;;;6682080;88;20195;-77
2022/12/02 00:29:43;;;;;;;1999.90;999.90;;;4.90;99.90;;;;;;6682262;88;20198;-77
2022/12/02 00:39:44;;;;;;;1999.90;999.90;;;4.90;99.90;;;;;;6682831;88;20208;-78
2022/12/02 00:49:44;;;;;;;1999.90;999.90;;;4.80;99.90;;;;;;6682644;89;20310;-79
2022/12/02 00:59:45;;;;;;;1999.90;999.90;;;4.80;99.90;;;;;;6682082;89;20306;-78
2022/12/02 01:09:45;;;;;;;1999.90;999.90;;;4.70;99.90;;;;;;6681399;89;20198;-77
2022/12/02 01:19:46;;;;;;;1999.90;999.90;;;4.60;99.90;;;;;;6678992;89;20627;-78
2022/12/02 01:29:46;;;;;;;1999.90;999.90;;;4.60;99.90;;;;;;6682064;89;20602;-77
2022/12/02 01:39:47;;;;;;;1999.90;999.90;;;4.60;99.90;;;;;;6711029;77;20173;-75
2022/12/02 01:49:47;;;;;;;1999.90;999.90;;;4.50;99.90;;;;;;6724789;88;20220;-75
2022/12/02 01:59:48;;;;;;;1999.90;999.90;;;4.60;99.90;;;;;;6728248;88;20367;-75
2022/12/02 02:09:49;;;;;;;1999.90;999.90;;;4.40;99.90;;;;;;6736990;88;20196;-75
2022/12/02 02:19:50;;;;;;;1999.90;999.90;;;4.40;99.90;;;;;;6737985;88;20552;-74
2022/12/02 02:29:50;;;;;;;1999.90;999.90;;;4.40;99.90;;;;;;6726885;88;20205;-74
2022/12/02 02:39:52;;;;;;;1999.90;999.90;;;4.50;99.90;;;;;;6725972;88;20326;-74
2022/12/02 02:49:52;;;;;;;1999.90;999.90;;;4.40;99.90;;;;;;6726597;88;20190;-74
2022/12/02 02:59:54;;;;;;;1999.90;999.90;;;4.40;99.90;;;;;;6729378;88;20897;-74
2022/12/02 03:09:55;;;;;;;1999.90;999.90;;;4.30;99.90;;;;;;6726721;88;20197;-74
2022/12/02 03:19:56;;;;;;;1999.90;999.90;;;4.30;99.90;;;;;;6726730;88;20215;-74
2022/12/02 03:29:57;;;;;;;1999.90;999.90;;;4.50;99.90;;;;;;6725402;88;20220;-74
2022/12/02 03:39:58;;;;;;;1999.90;999.90;;;4.40;99.90;;;;;;6723088;88;20203;-74
2022/12/02 03:49:58;;;;;;;1999.90;999.90;;;4.40;99.90;;;;;;6725930;88;20328;-74
2022/12/02 03:59:59;;;;;;;1999.90;999.90;;;4.40;99.90;;;;;;6726427;88;20549;-74
2022/12/02 04:10:00;;;;;;;1999.90;999.90;;;4.40;99.90;;;;;;6727249;88;20295;-74
2022/12/02 04:20:01;;;;;;;1999.90;999.90;;;4.30;99.90;;;;;;6725107;88;21799;-74
2022/12/02 04:30:03;;;;;;;1999.90;999.90;;;4.40;99.90;;;;;;6728431;88;21019;-74
2022/12/02 04:40:04;;;;;;;1999.90;999.90;;;4.40;99.90;;;;;;6725274;88;20185;-74
2022/12/02 04:50:06;;;;;;;1999.90;999.90;;;4.40;99.90;;;;;;6724047;88;20210;-75
2022/12/02 05:00:07;;;;;;;1999.90;999.90;;;4.30;99.90;;;;;;6725727;88;20786;-75
2022/12/02 05:10:08;;;;;;;1999.90;999.90;;;4.30;99.90;;;;;;6725916;88;20220;-74
2022/12/02 05:20:10;;;;;;;1999.90;999.90;;;4.30;99.90;;;;;;6725325;88;20232;-74
2022/12/02 05:30:11;;;;;;;1999.90;999.90;;;4.30;99.90;;;;;;6727684;88;20258;-75
2022/12/02 05:40:12;;;;;;;1999.90;999.90;;;4.10;99.90;;;;;;6727550;88;20210;-75
2022/12/02 05:50:13;;;;;;;1999.90;999.90;;;4.10;99.90;;;;;;6727514;88;20181;-75
2022/12/02 06:00:16;;;;;;;1999.90;999.90;;;4.10;99.90;;;;;;6726769;88;20951;-74
2022/12/02 06:10:22;;;;;;;1999.90;999.90;;;4.10;99.90;;;;;;6729833;88;20216;-74
2022/12/02 06:20:31;;;;;;;1999.90;999.90;;;4.20;99.90;;;;;;6730091;88;20172;-74
2022/12/02 06:30:32;;;;;;;1999.90;999.90;;;4.20;99.90;;;;;;6728182;88;20180;-75
2022/12/02 06:40:35;;;;;;;1999.90;999.90;;;4.10;99.90;;;;;;6729729;88;20795;-75
2022/12/02 06:50:45;;;;;;;1999.90;999.90;;;4.10;99.90;;;;;;6740522;88;20231;-75
2022/12/02 07:00:46;;;;;;;1999.90;999.90;;;4.10;99.90;;;;;;6737397;88;20184;-73
2022/12/02 07:10:47;;;;;;;1999.90;999.90;;;4.10;99.90;;;;;;6727916;88;20730;-73
2022/12/02 07:20:48;;;;;;;1999.90;999.90;;;4.20;99.90;;;;;;6730758;88;20663;-73
2022/12/02 07:30:55;;;;;;;1999.90;999.90;;;4.20;99.90;;;;;;6724716;88;20425;-73
2022/12/02 07:40:56;;;;;;;1999.90;999.90;;;4.20;99.90;;;;;;6735193;77;20203;-73
2022/12/02 07:50:56;;;;;;;1999.90;999.90;;;4.10;99.90;;;;;;6737466;88;20229;-73
2022/12/02 08:00:57;;;;;;;1999.90;999.90;;;4.20;99.90;;;;;;6737405;88;20193;-72
2022/12/02 08:10:57;;;;;;;1999.90;999.90;;;4.20;99.90;;;;;;6735266;88;20359;-73
2022/12/02 08:20:58;;;;;;;1999.90;999.90;;;4.20;99.90;;;;;;6734314;87;20301;-73
2022/12/02 08:30:59;;;;;;;1999.90;999.90;;;4.20;99.90;;;;;;6727980;88;20207;-72
2022/12/02 08:40:59;;;;;;;1999.90;999.90;;;4.20;99.90;;;;;;6732724;88;20207;-73
2022/12/02 08:51:00;;;;;;;1999.90;999.90;;;4.20;99.90;;;;;;6735094;88;20209;-72
2022/12/02 09:01:01;;;;;;;1999.90;999.90;;;4.30;99.90;;;;;;6736484;88;20232;-73
2022/12/02 09:11:02;;;;;;;1999.90;999.90;;;4.30;99.90;;;;;;6737819;88;20298;-72
2022/12/02 09:21:02;;;;;;;1999.90;999.90;;;4.40;99.90;;;;;;6734372;87;21071;-73
2022/12/02 09:31:03;;;;;;;1999.90;999.90;;;4.30;99.90;;;;;;6733265;88;20356;-72
2022/12/02 09:41:04;;;;;;;1999.90;999.90;;;4.30;99.90;;;;;;6736104;88;20228;-72
2022/12/02 09:51:04;;;;;;;1999.90;999.90;;;4.40;99.90;;;;;;6734305;88;20642;-73
2022/12/02 10:01:10;;;;;;;1999.90;999.90;;;4.50;99.90;;;;;;6732279;88;20610;-72
2022/12/02 10:11:21;;;;;;;1999.90;999.90;;;4.50;99.90;;;;;;6731977;88;20221;-72
2022/12/02 10:21:22;;;;;;;1999.90;999.90;;;4.60;99.90;;;;;;6738723;87;20208;-72
2022/12/02 10:31:22;;;;;;;1999.90;999.90;;;4.70;99.90;;;;;;6736260;88;20266;-72
2022/12/02 10:41:24;;;;;;;1999.90;999.90;;;4.70;99.90;;;;;;6739514;88;20316;-72
2022/12/02 10:51:24;;;;;;;1999.90;999.90;;;4.90;99.90;;;;;;6740501;88;20202;-72
2022/12/02 11:01:25;;;;;;;1999.90;999.90;;;5.10;99.90;;;;;;6736149;87;20245;-72
2022/12/02 11:11:25;;;;;;;1999.90;999.90;;;5.00;99.90;;;;;;6742306;88;20196;-72
2022/12/02 11:21:28;;;;;;;1999.90;999.90;;;5.00;99.90;;;;;;6746789;87;20315;-72
2022/12/02 11:31:29;;;;;;;1999.90;999.90;;;4.90;99.90;;;;;;6738648;88;20294;-71
2022/12/02 11:41:51;;;;;;;1999.90;999.90;;;4.90;99.90;;;;;;6745386;88;20210;-72
2022/12/02 11:52:04;;;;;;;1999.90;999.90;;;4.90;99.90;;;;;;6739919;88;20192;-72
2022/12/02 12:02:15;;;;;;;1999.90;999.90;;;4.70;99.90;;;;;;6738674;88;20264;-73
2022/12/02 12:12:18;;;;;;;1999.90;999.90;;;4.60;99.90;;;;;;6735598;88;20234;-73
2022/12/02 12:22:29;;;;;;;1999.90;999.90;;;4.20;99.90;;;;;;6735783;87;20216;-74
2022/12/02 12:32:30;;;;;;;1999.90;999.90;;;4.00;99.90;;;;;;6737995;88;20218;-73
2022/12/02 12:42:30;;;;;;;1999.90;999.90;;;3.90;99.90;;;;;;6737619;88;20614;-73
2022/12/02 12:52:31;;;;;;;1999.90;999.90;;;3.80;99.90;;;;;;6737971;88;20224;-73
2022/12/02 13:02:31;;;;;;;1999.90;999.90;;;3.90;99.90;;;;;;6736372;88;20394;-74
2022/12/02 13:12:32;;;;;;;1999.90;999.90;;;3.80;99.90;;;;;;6737856;88;20345;-73
2022/12/02 13:22:32;;;;;;;1999.90;999.90;;;3.80;99.90;;;;;;6737933;88;20216;-74
2022/12/02 13:32:33;;;;;;;1999.90;999.90;;;4.00;99.90;;;;;;6734389;88;20209;-74
2022/12/02 13:42:33;;;;;;;1999.90;999.90;;;3.90;99.90;;;;;;6726844;76;20189;-76
2022/12/02 13:52:34;;;;;;;1999.90;999.90;;;3.90;99.90;;;;;;6714632;88;20234;-78
2022/12/02 14:02:34;;;;;;;1999.90;999.90;;;3.80;99.90;;;;;;6713976;88;20227;-76
2022/12/02 14:12:35;;;;;;;1999.90;999.90;;;3.80;99.90;;;;;;6717064;88;20172;-76
2022/12/02 14:22:35;;;;;;;1999.90;999.90;;;3.80;99.90;;;;;;6717088;88;20215;-76
2022/12/02 14:32:36;;;;;;;1999.90;999.90;;;4.00;99.90;;;;;;6707777;88;20797;-78
2022/12/02 14:42:37;;;;;;;1999.90;999.90;;;4.00;99.90;;;;;;6713314;88;20264;-78
2022/12/02 14:52:37;;;;;;;1999.90;999.90;;;4.00;99.90;;;;;;6711092;88;20230;-78
2022/12/02 15:02:38;;;;;;;1999.90;999.90;;;4.00;99.90;;;;;;6714280;88;20250;-77
2022/12/02 15:12:38;;;;;;;1999.90;999.90;;;4.20;99.90;;;;;;6715686;88;20198;-77
2022/12/02 15:22:39;;;;;;;1999.90;999.90;;;4.10;99.90;;;;;;6714832;88;20495;-75
2022/12/02 15:32:40;;;;;;;1999.90;999.90;;;4.00;99.90;;;;;;6712963;88;20562;-77
2022/12/02 15:42:40;;;;;;;1999.90;999.90;;;3.90;99.90;;;;;;6716290;88;20211;-75
2022/12/02 15:52:41;;;;;;;1999.90;999.90;;;3.90;99.90;;;;;;6711786;88;20313;-79
2022/12/02 16:02:41;;;;;;;1999.90;999.90;;;3.80;99.90;;;;;;6711034;88;20230;-76
2022/12/02 16:12:42;;;;;;;1999.90;999.90;;;3.80;99.90;;;;;;6714091;88;20227;-77
2022/12/02 16:22:42;;;;;;;1999.90;999.90;;;3.70;99.90;;;;;;6714658;88;21160;-77
2022/12/02 16:32:43;;;;;;;1999.90;999.90;;;3.70;99.90;;;;;;6708942;88;20707;-76
2022/12/02 16:42:44;;;;;;;1999.90;999.90;;;3.70;99.90;;;;;;6713920;88;21084;-75
2022/12/02 16:52:44;;;;;;;1999.90;999.90;;;3.60;99.90;;;;;;6715200;88;20173;-76
2022/12/02 17:02:45;;;;;;;1999.90;999.90;;;3.50;99.90;;;;;;6719808;88;20569;-78
2022/12/02 17:12:45;;;;;;;1999.90;999.90;;;3.30;99.90;;;;;;6718661;88;20187;-78
2022/12/02 17:22:46;;;;;;;1999.90;999.90;;;3.30;99.90;;;;;;6714680;88;20299;-77
2022/12/02 17:32:46;;;;;;;1999.90;999.90;;;3.20;99.90;;;;;;6717598;88;20318;-78
2022/12/02 17:42:47;;;;;;;1999.90;999.90;;;3.30;99.90;;;;;;6715530;88;21030;-78
2022/12/02 17:52:47;;;;;;;1999.90;999.90;;;3.30;99.90;;;;;;6721533;88;20222;-78
2022/12/02 18:02:48;;;;;;;1999.90;999.90;;;3.30;99.90;;;;;;6716838;88;20213;-77
2022/12/02 18:12:48;;;;;;;1999.90;999.90;;;3.20;99.90;;;;;;6718429;88;20218;-77
2022/12/02 18:22:49;;;;;;;1999.90;999.90;;;3.30;99.90;;;;;;6718312;88;20697;-77
2022/12/02 18:32:50;;;;;;;1999.90;999.90;;;3.20;99.90;;;;;;6718545;88;20193;-76
2022/12/02 18:42:50;;;;;;;1999.90;999.90;;;3.30;99.90;;;;;;6715503;88;20202;-78
2022/12/02 18:52:51;;;;;;;1999.90;999.90;;;3.20;99.90;;;;;;6717068;88;20234;-79
2022/12/02 19:02:51;;;;;;;1999.90;999.90;;;3.30;99.90;;;;;;6721243;88;20229;-79
2022/12/02 19:12:52;;;;;;;1999.90;999.90;;;3.20;99.90;;;;;;6723811;88;21106;-80
2022/12/02 19:22:52;;;;;;;1999.90;999.90;;;3.30;99.90;;;;;;6719048;88;20278;-78
2022/12/02 19:32:53;;;;;;;1999.90;999.90;;;3.20;99.90;;;;;;6722396;88;20287;-78
2022/12/02 19:53:57;;;;;;;1999.90;999.90;;;3.10;99.90;;;;;;6748215;88;20644;-81
2022/12/02 20:03:57;;;;;;;1999.90;999.90;;;3.20;99.90;;;;;;6750228;88;20216;-80
2022/12/02 20:13:58;;;;;;;1999.90;999.90;;;3.10;99.90;;;;;;6754018;88;20666;-80
2022/12/02 20:23:58;;;;;;;1999.90;999.90;;;3.00;99.90;;;;;;6745241;88;20216;-80
2022/12/02 20:33:59;;;;;;;1999.90;999.90;;;2.80;99.90;;;;;;6744898;88;20222;-80
2022/12/02 20:43:59;;;;;;;1999.90;999.90;;;2.80;99.90;;;;;;6744531;88;20452;-79
2022/12/02 20:54:00;;;;;;;1999.90;999.90;;;2.90;99.90;;;;;;6745022;88;20295;-79
2022/12/02 21:04:00;;;;;;;1999.90;999.90;;;2.70;99.90;;;;;;6750509;88;20207;-79
2022/12/02 21:14:02;;;;;;;1999.90;999.90;;;2.70;99.90;;;;;;6743435;88;20683;-82
2022/12/02 21:24:03;;;;;;;1999.90;999.90;;;2.40;99.90;;;;;;6743242;88;20202;-79
2022/12/02 21:34:04;;;;;;;1999.90;999.90;;;2.40;99.90;;;;;;6746244;88;21019;-80
2022/12/02 21:44:05;;;;;;;1999.90;999.90;;;2.20;99.90;;;;;;6748183;88;20202;-81
2022/12/02 21:54:05;;;;;;;1999.90;999.90;;;2.10;99.90;;;;;;6762827;88;20200;-81
2022/12/02 22:04:08;;;;;;;1999.90;999.90;;;2.10;99.90;;;;;;6762296;88;20188;-79
2022/12/02 22:14:09;;;;;;;1999.90;999.90;;;2.00;99.90;;;;;;6749976;88;20203;-79
2022/12/02 22:24:10;;;;;;;1999.90;999.90;;;2.00;99.90;;;;;;6756241;88;20716;-79
2022/12/02 22:34:10;;;;;;;1999.90;999.90;;;2.20;99.90;;;;;;6748774;88;20217;-79
2022/12/02 22:44:11;;;;;;;1999.90;999.90;;;2.20;99.90;;;;;;6749005;88;20254;-79
2022/12/02 22:54:11;;;;;;;1999.90;999.90;;;2.30;99.90;;;;;;6757686;88;20226;-79
2022/12/02 23:04:13;;;;;;;1999.90;999.90;;;2.30;99.90;;;;;;6757094;88;20204;-80
2022/12/02 23:14:13;;;;;;;1999.90;999.90;;;2.40;99.90;;;;;;6745192;88;20290;-79
2022/12/02 23:24:14;;;;;;;1999.90;999.90;;;2.50;99.90;;;;;;6741473;88;20276;-80
2022/12/02 23:34:14;;;;;;;1999.90;999.90;;;2.40;99.90;;;;;;6742133;88;20802;-81
2022/12/02 23:44:15;;;;;;;1999.90;999.90;;;2.50;99.90;;;;;;6734529;88;20243;-77
2022/12/02 23:54:15;;;;;;;1999.90;999.90;;;2.50;99.90;;;;;;6718660;88;20579;-77
